Time;durP1;ratioP1;P1;durP2;ratioP2;P2;SDS_P1;SDS_P2;PMS_P1;PMS_P2;Temp;Humidity;BMP_temperature;BMP_pressure;BME280_temperature;BME280_humidity;BME280_pressure;Samples;Min_cycle;Max_cycle;Signal;HPM_P1;HPM_P2
2023/08/03 00:02:08;;;;;;;4.03;1.10;;;18.80;81.50;;;;;;5056073;28;20350;-68
2023/08/03 00:04:34;;;;;;;1.25;0.85;;;18.80;81.60;;;;;;5054831;28;20411;-68
2023/08/03 00:07:00;;;;;;;3.38;1.08;;;18.80;81.70;;;;;;5051312;28;20040;-68
2023/08/03 00:09:25;;;;;;;2.72;1.10;;;18.70;81.70;;;;;;5051554;28;20024;-68
2023/08/03 00:11:51;;;;;;;2.08;1.05;;;18.80;81.80;;;;;;5052599;28;20477;-68
2023/08/03 00:14:17;;;;;;;4.47;1.20;;;18.70;81.80;;;;;;5050232;28;20029;-68
2023/08/03 00:16:43;;;;;;;2.78;1.10;;;18.70;82.00;;;;;;5044612;28;20055;-68
2023/08/03 00:19:09;;;;;;;2.85;0.90;;;18.70;82.00;;;;;;5047406;28;20033;-68
2023/08/03 00:21:34;;;;;;;2.33;1.05;;;18.70;82.10;;;;;;5054744;28;20036;-69
2023/08/03 00:24:00;;;;;;;1.75;0.93;;;18.70;82.20;;;;;;5050443;28;20021;-68
2023/08/03 00:26:26;;;;;;;2.92;1.20;;;18.70;82.30;;;;;;5052838;28;20033;-68
2023/08/03 00:28:52;;;;;;;2.00;0.90;;;18.70;82.40;;;;;;5042141;28;20031;-68
2023/08/03 00:31:18;;;;;;;3.88;1.15;;;18.70;82.40;;;;;;5050915;28;20458;-68
2023/08/03 00:33:44;;;;;;;3.38;1.30;;;18.70;82.50;;;;;;5054895;28;20028;-68
2023/08/03 00:36:09;;;;;;;2.83;0.90;;;18.70;82.50;;;;;;5047976;28;20402;-68
2023/08/03 00:38:35;;;;;;;2.15;1.10;;;18.70;82.40;;;;;;5051842;28;20064;-69
2023/08/03 00:41:01;;;;;;;3.08;1.00;;;18.70;82.50;;;;;;5034158;28;20033;-68
2023/08/03 00:43:26;;;;;;;2.10;0.80;;;18.70;82.50;;;;;;5055689;28;20029;-68
2023/08/03 00:45:53;;;;;;;3.33;1.40;;;18.70;82.60;;;;;;5027098;28;20041;-68
2023/08/03 00:48:19;;;;;;;2.80;0.98;;;18.70;82.70;;;;;;5039785;28;20029;-69
2023/08/03 00:50:45;;;;;;;2.55;1.10;;;18.70;82.80;;;;;;5049393;28;20022;-68
2023/08/03 00:53:10;;;;;;;4.38;1.10;;;18.70;82.90;;;;;;5054130;28;20035;-68
2023/08/03 00:55:36;;;;;;;2.85;1.10;;;18.70;82.90;;;;;;5048317;28;20029;-68
2023/08/03 00:58:02;;;;;;;5.63;1.48;;;18.70;83.00;;;;;;5050859;28;20369;-68
2023/08/03 01:00:29;;;;;;;3.22;1.30;;;18.70;83.20;;;;;;5052011;28;20366;-69
2023/08/03 01:02:54;;;;;;;5.68;1.40;;;18.70;83.20;;;;;;5050167;28;20040;-69
2023/08/03 01:05:20;;;;;;;2.00;1.30;;;18.70;83.30;;;;;;5052808;28;20024;-69
2023/08/03 01:07:46;;;;;;;4.05;1.60;;;18.70;83.40;;;;;;5059488;28;20029;-69
2023/08/03 01:10:12;;;;;;;5.20;1.65;;;18.70;83.50;;;;;;5050232;28;20021;-69
2023/08/03 01:12:38;;;;;;;3.65;1.60;;;18.70;83.50;;;;;;5049856;28;20048;-68
2023/08/03 01:15:05;;;;;;;6.28;1.77;;;18.80;83.60;;;;;;5052947;28;20044;-69
2023/08/03 01:17:30;;;;;;;4.85;2.05;;;18.70;83.60;;;;;;5041623;28;20061;-69
2023/08/03 01:19:56;;;;;;;4.85;1.80;;;18.70;83.70;;;;;;5035661;28;20744;-69
2023/08/03 01:22:23;;;;;;;5.35;2.00;;;18.80;83.80;;;;;;5048197;28;20029;-69
2023/08/03 01:24:48;;;;;;;5.85;2.17;;;18.70;84.50;;;;;;5055696;28;20021;-68
2023/08/03 01:27:14;;;;;;;5.38;2.10;;;18.70;83.80;;;;;;5052314;28;20502;-69
2023/08/03 01:29:40;;;;;;;7.18;2.20;;;18.80;83.90;;;;;;5052948;28;20047;-68
2023/08/03 01:32:06;;;;;;;4.10;1.70;;;18.80;83.90;;;;;;5048490;28;20037;-68
2023/08/03 01:34:32;;;;;;;5.25;1.50;;;18.70;83.90;;;;;;5053746;28;20032;-68
2023/08/03 01:36:57;;;;;;;4.40;1.48;;;18.70;84.00;;;;;;5048894;28;20032;-68
2023/08/03 01:39:27;;;;;;;2.58;1.20;;;18.70;83.90;;;;;;5051728;28;20071;-68
2023/08/03 01:41:53;;;;;;;4.20;1.58;;;18.70;84.00;;;;;;5049252;28;20442;-68
2023/08/03 01:44:27;;;;;;;3.55;1.23;;;18.70;84.10;;;;;;5054386;28;20040;-68
2023/08/03 01:46:55;;;;;;;3.13;1.30;;;18.70;84.10;;;;;;5049625;28;20159;-69
2023/08/03 01:49:22;;;;;;;3.17;1.05;;;18.70;84.10;;;;;;5039088;28;20435;-69
2023/08/03 01:51:49;;;;;;;4.03;1.20;;;18.70;84.10;;;;;;5048432;28;20335;-69
2023/08/03 01:54:15;;;;;;;3.70;1.42;;;18.70;84.20;;;;;;5053243;28;20588;-68
2023/08/03 01:56:41;;;;;;;4.97;1.95;;;18.70;84.30;;;;;;5047961;28;20478;-68
2023/08/03 01:59:08;;;;;;;4.57;1.35;;;18.70;84.30;;;;;;5054158;28;20027;-69
2023/08/03 02:01:34;;;;;;;4.15;1.75;;;18.70;84.30;;;;;;5048178;28;20076;-68
2023/08/03 02:04:00;;;;;;;5.90;1.95;;;18.80;84.40;;;;;;5049438;28;20439;-68
2023/08/03 02:06:26;;;;;;;7.22;2.20;;;18.80;84.50;;;;;;5027742;28;20417;-69
2023/08/03 02:08:51;;;;;;;5.45;2.00;;;18.70;84.60;;;;;;5044739;28;20018;-69
2023/08/03 02:11:17;;;;;;;6.97;2.35;;;18.70;84.60;;;;;;5046697;28;20021;-69
2023/08/03 02:13:43;;;;;;;5.85;1.98;;;18.80;84.60;;;;;;5049236;28;20032;-69
2023/08/03 02:16:10;;;;;;;5.97;2.28;;;18.80;84.70;;;;;;5035243;28;20037;-69
2023/08/03 02:18:38;;;;;;;6.75;1.80;;;18.80;84.70;;;;;;5033090;28;20028;-68
2023/08/03 02:21:04;;;;;;;6.00;2.05;;;18.80;84.80;;;;;;5039725;28;20436;-68
2023/08/03 02:23:30;;;;;;;6.90;2.10;;;18.80;84.80;;;;;;5048834;28;20115;-68
2023/08/03 02:25:56;;;;;;;5.55;2.13;;;18.80;84.90;;;;;;5049407;28;20108;-68
2023/08/03 02:28:22;;;;;;;5.82;2.05;;;18.80;84.90;;;;;;5045154;28;20024;-68
2023/08/03 02:30:48;;;;;;;6.35;2.65;;;18.80;85.00;;;;;;5036400;28;20029;-68
2023/08/03 02:33:14;;;;;;;7.20;2.70;;;18.80;85.00;;;;;;5046388;28;20029;-68
2023/08/03 02:35:40;;;;;;;6.15;2.45;;;18.90;85.20;;;;;;5052387;28;20457;-69
2023/08/03 02:38:06;;;;;;;8.68;2.30;;;18.90;85.20;;;;;;5024079;28;20472;-68
2023/08/03 02:40:32;;;;;;;7.78;2.40;;;18.80;85.10;;;;;;5042176;28;20054;-68
2023/08/03 02:42:59;;;;;;;7.32;2.65;;;18.90;85.20;;;;;;5040444;28;20329;-69
2023/08/03 02:45:25;;;;;;;7.60;2.80;;;18.90;85.20;;;;;;5051058;28;20491;-68
2023/08/03 02:47:55;;;;;;;7.13;2.50;;;18.90;85.20;;;;;;5042635;28;20017;-68
2023/08/03 02:50:22;;;;;;;9.25;2.75;;;18.90;85.20;;;;;;5043561;28;20035;-68
2023/08/03 02:52:50;;;;;;;8.30;2.63;;;18.90;85.20;;;;;;5046585;28;20024;-68
2023/08/03 02:55:17;;;;;;;7.97;2.80;;;18.90;85.20;;;;;;5051999;28;20041;-68
2023/08/03 02:57:44;;;;;;;7.38;2.92;;;18.90;85.20;;;;;;5054212;28;20048;-68
2023/08/03 03:00:11;;;;;;;6.93;3.05;;;18.80;85.30;;;;;;5055595;28;20037;-68
2023/08/03 03:02:38;;;;;;;11.75;3.22;;;18.90;85.40;;;;;;5042082;28;20021;-68
2023/08/03 03:05:05;;;;;;;7.85;2.42;;;18.80;85.30;;;;;;5055239;28;20017;-69
2023/08/03 03:07:34;;;;;;;9.60;3.08;;;18.80;85.40;;;;;;5038004;28;20034;-68
2023/08/03 03:10:02;;;;;;;8.52;2.50;;;18.80;85.40;;;;;;5037754;28;20077;-68
2023/08/03 03:12:29;;;;;;;8.85;2.58;;;18.80;85.40;;;;;;5038547;28;20025;-68
2023/08/03 03:14:55;;;;;;;7.30;2.67;;;18.90;85.50;;;;;;5048211;28;20120;-69
2023/08/03 03:17:22;;;;;;;8.82;3.08;;;18.90;85.40;;;;;;5042523;28;20153;-68
2023/08/03 03:19:49;;;;;;;8.15;3.00;;;18.90;86.10;;;;;;5050296;28;20029;-68
2023/08/03 03:22:15;;;;;;;7.95;3.45;;;18.90;85.50;;;;;;5052114;28;20021;-68
2023/08/03 03:24:41;;;;;;;7.28;2.63;;;18.90;85.50;;;;;;5055442;28;20378;-68
2023/08/03 03:27:07;;;;;;;4.55;2.00;;;18.90;85.50;;;;;;5055351;28;20025;-69
2023/08/03 03:29:40;;;;;;;4.78;1.80;;;18.90;85.50;;;;;;5051466;28;20021;-68
2023/08/03 03:32:07;;;;;;;4.55;1.88;;;18.90;85.40;;;;;;5052676;28;20075;-68
2023/08/03 03:34:33;;;;;;;4.18;1.60;;;18.90;85.50;;;;;;5053504;28;20021;-68
2023/08/03 03:36:59;;;;;;;3.15;1.70;;;18.90;85.40;;;;;;5053679;28;20407;-68
2023/08/03 03:39:25;;;;;;;4.13;1.60;;;18.80;85.30;;;;;;5054624;28;20028;-68
2023/08/03 03:41:51;;;;;;;2.58;1.30;;;18.80;85.30;;;;;;5038842;28;20308;-68
2023/08/03 03:44:18;;;;;;;3.92;1.50;;;18.80;85.30;;;;;;5041862;28;20113;-68
2023/08/03 03:46:44;;;;;;;3.55;1.42;;;18.80;85.40;;;;;;5051301;28;20183;-68
2023/08/03 03:49:10;;;;;;;4.38;1.67;;;18.80;85.50;;;;;;5057887;28;20108;-69
2023/08/03 03:51:36;;;;;;;4.80;1.42;;;18.70;85.50;;;;;;5039639;28;20109;-69
2023/08/03 03:54:03;;;;;;;3.55;1.75;;;18.70;85.60;;;;;;5045746;28;20021;-68
2023/08/03 03:56:30;;;;;;;5.40;2.03;;;18.70;85.50;;;;;;5052719;28;20126;-68
2023/08/03 03:58:56;;;;;;;5.07;2.13;;;18.70;85.60;;;;;;5044559;28;20065;-69
2023/08/03 04:01:21;;;;;;;3.92;2.00;;;18.70;85.60;;;;;;5040874;28;20040;-69
2023/08/03 04:03:50;;;;;;;4.15;1.90;;;18.70;85.70;;;;;;5045452;28;20019;-69
2023/08/03 04:06:16;;;;;;;3.80;1.85;;;18.70;85.70;;;;;;5051439;28;20021;-69
2023/08/03 04:08:42;;;;;;;3.83;1.80;;;18.70;85.70;;;;;;5037583;28;20103;-69
2023/08/03 04:11:08;;;;;;;5.20;2.42;;;18.70;85.70;;;;;;5047754;28;20429;-68
2023/08/03 04:13:34;;;;;;;3.67;1.90;;;18.70;85.70;;;;;;5048577;28;20025;-68
2023/08/03 04:16:00;;;;;;;4.55;1.80;;;18.70;85.70;;;;;;5054934;28;20135;-68
2023/08/03 04:18:27;;;;;;;5.47;2.03;;;18.70;85.70;;;;;;5040850;28;20362;-68
2023/08/03 04:20:54;;;;;;;5.25;2.13;;;18.70;85.70;;;;;;5030933;28;20051;-69
2023/08/03 04:23:20;;;;;;;5.45;2.00;;;18.70;85.80;;;;;;5034401;28;20362;-68
2023/08/03 04:25:46;;;;;;;4.75;2.20;;;18.70;85.80;;;;;;5068270;28;20033;-69
2023/08/03 04:28:16;;;;;;;6.22;2.38;;;18.70;85.80;;;;;;5045410;28;20028;-69
2023/08/03 04:30:42;;;;;;;8.13;2.65;;;18.70;85.80;;;;;;5069197;28;20350;-68
2023/08/03 04:33:08;;;;;;;5.97;2.45;;;18.70;85.80;;;;;;5054140;28;20032;-68
2023/08/03 04:35:36;;;;;;;7.90;2.88;;;18.70;85.80;;;;;;5037355;28;20024;-68
2023/08/03 04:38:11;;;;;;;7.07;2.67;;;18.70;85.70;;;;;;5033749;28;20052;-69
2023/08/03 04:40:41;;;;;;;7.78;2.85;;;18.70;85.80;;;;;;5036228;28;20029;-68
2023/08/03 04:43:07;;;;;;;6.22;2.70;;;18.70;85.70;;;;;;5045222;28;20065;-69
2023/08/03 04:45:34;;;;;;;6.78;2.45;;;18.70;85.70;;;;;;5065627;28;20086;-68
2023/08/03 04:48:00;;;;;;;7.13;2.58;;;18.70;85.70;;;;;;5063901;28;20032;-68
2023/08/03 04:50:27;;;;;;;6.03;2.50;;;18.70;85.70;;;;;;5050308;28;20342;-69
2023/08/03 04:52:52;;;;;;;6.35;2.50;;;18.70;85.70;;;;;;5054407;28;20025;-69
2023/08/03 04:55:20;;;;;;;5.85;2.10;;;18.70;85.70;;;;;;5050985;28;20036;-68
2023/08/03 04:57:47;;;;;;;4.00;1.83;;;18.70;85.80;;;;;;5051388;28;20029;-68
2023/08/03 05:00:13;;;;;;;5.03;2.10;;;18.70;85.90;;;;;;5051839;28;20021;-68
2023/08/03 05:02:39;;;;;;;6.18;1.92;;;18.70;85.90;;;;;;5055152;28;20041;-68
2023/08/03 05:05:05;;;;;;;6.13;1.80;;;18.70;85.90;;;;;;5034134;28;20093;-68
2023/08/03 05:07:31;;;;;;;5.25;1.85;;;18.70;85.90;;;;;;5030998;28;20087;-67
2023/08/03 05:09:57;;;;;;;5.78;1.98;;;18.70;86.00;;;;;;5044678;28;20029;-68
2023/08/03 05:12:22;;;;;;;5.40;1.45;;;18.70;85.90;;;;;;5044384;28;20432;-68
2023/08/03 05:14:49;;;;;;;9.05;1.67;;;18.70;85.90;;;;;;5049399;28;20106;-68
2023/08/03 05:17:15;;;;;;;5.80;1.90;;;18.70;85.90;;;;;;5035848;28;20232;-68
2023/08/03 05:19:40;;;;;;;6.70;1.73;;;18.70;86.00;;;;;;5042606;28;20028;-68
2023/08/03 05:22:06;;;;;;;7.30;2.15;;;18.70;86.00;;;;;;5055848;28;20039;-68
2023/08/03 05:24:32;;;;;;;6.50;1.63;;;18.70;86.00;;;;;;5048908;28;20060;-68
2023/08/03 05:26:58;;;;;;;7.40;1.77;;;18.70;85.90;;;;;;5052990;28;20048;-68
2023/08/03 05:29:25;;;;;;;4.97;1.50;;;18.70;85.90;;;;;;5046420;28;20026;-68
2023/08/03 05:31:50;;;;;;;7.30;2.22;;;18.70;85.90;;;;;;5050859;28;20112;-68
2023/08/03 05:34:16;;;;;;;4.68;1.60;;;18.70;86.00;;;;;;5038846;28;20419;-68
2023/08/03 05:36:42;;;;;;;4.65;1.52;;;18.70;85.90;;;;;;5033898;28;20350;-67
2023/08/03 05:39:08;;;;;;;4.50;1.55;;;18.70;86.00;;;;;;5044533;28;20070;-68
2023/08/03 05:41:34;;;;;;;4.65;1.70;;;18.70;86.10;;;;;;5043156;28;20342;-68
2023/08/03 05:44:01;;;;;;;4.32;1.80;;;18.60;86.10;;;;;;5035027;28;20025;-67
2023/08/03 05:46:31;;;;;;;6.07;1.70;;;18.70;86.10;;;;;;5045518;28;20092;-67
2023/08/03 05:48:57;;;;;;;6.17;1.53;;;18.70;86.10;;;;;;5039069;28;20308;-67
2023/08/03 05:51:25;;;;;;;5.53;1.85;;;18.70;86.00;;;;;;5026217;28;20098;-67
2023/08/03 05:53:52;;;;;;;5.68;1.80;;;18.70;86.00;;;;;;5044025;28;20040;-68
2023/08/03 05:56:21;;;;;;;6.43;1.90;;;18.70;86.00;;;;;;5043042;28;20033;-68
2023/08/03 05:58:50;;;;;;;6.18;1.67;;;18.70;86.10;;;;;;5044394;28;20040;-68
2023/08/03 06:01:20;;;;;;;6.82;2.08;;;18.70;86.00;;;;;;5045768;28;20040;-68
2023/08/03 06:03:47;;;;;;;5.03;1.75;;;18.70;86.00;;;;;;5047846;28;20174;-68
2023/08/03 06:06:18;;;;;;;6.43;1.52;;;18.70;86.70;;;;;;5043121;28;20049;-69
2023/08/03 06:08:48;;;;;;;;;;;18.70;86.10;;;;;;5043828;28;20141;-68
2023/08/03 06:11:17;;;;;;;5.18;1.60;;;18.70;86.10;;;;;;5046989;28;19914;-68
2023/08/03 06:13:43;;;;;;;5.43;1.75;;;18.60;86.00;;;;;;5045603;28;20462;-68
2023/08/03 06:16:11;;;;;;;9.00;2.22;;;18.70;86.10;;;;;;5047479;28;20076;-69
2023/08/03 06:18:49;;;;;;;6.00;1.83;;;18.70;86.00;;;;;;5048441;28;20021;-68
2023/08/03 06:21:17;;;;;;;7.50;1.73;;;18.70;86.00;;;;;;5051133;28;20032;-69
2023/08/03 06:23:47;;;;;;;6.28;1.75;;;18.70;86.00;;;;;;5046988;28;20032;-68
2023/08/03 06:26:14;;;;;;;5.93;1.90;;;18.70;85.90;;;;;;5046745;28;20028;-68
2023/08/03 06:28:40;;;;;;;7.90;1.63;;;18.80;85.90;;;;;;5045455;28;20029;-68
2023/08/03 06:31:13;;;;;;;6.82;2.33;;;18.70;85.90;;;;;;5036522;28;20142;-68
2023/08/03 06:33:39;;;;;;;8.20;2.00;;;18.70;85.90;;;;;;5052955;28;20108;-68
2023/08/03 06:36:05;;;;;;;6.63;1.88;;;18.70;85.90;;;;;;5053668;28;20374;-68
2023/08/03 06:38:34;;;;;;;7.78;2.00;;;18.70;85.80;;;;;;5048850;28;20033;-69
2023/08/03 06:41:00;;;;;;;6.70;2.00;;;18.70;85.90;;;;;;5050579;28;20049;-68
2023/08/03 06:43:26;;;;;;;7.10;1.95;;;18.70;86.00;;;;;;5049087;28;20075;-68
2023/08/03 06:45:51;;;;;;;6.82;1.67;;;18.70;86.00;;;;;;5060641;28;20021;-68
2023/08/03 06:48:18;;;;;;;5.95;1.58;;;18.70;85.90;;;;;;5040031;28;20028;-68
2023/08/03 06:50:44;;;;;;;5.60;1.75;;;18.70;85.90;;;;;;5039438;28;20481;-68
2023/08/03 06:53:11;;;;;;;8.10;1.92;;;18.70;86.00;;;;;;5043919;28;20024;-68
2023/08/03 06:55:37;;;;;;;7.25;2.17;;;18.70;85.90;;;;;;5038713;28;20061;-68
2023/08/03 06:58:03;;;;;;;6.45;1.63;;;18.80;85.80;;;;;;5048157;28;20048;-67
2023/08/03 07:00:29;;;;;;;10.57;2.55;;;18.80;85.80;;;;;;5042995;28;20025;-67
2023/08/03 07:02:55;;;;;;;5.85;1.83;;;18.80;85.70;;;;;;5047662;28;20429;-67
2023/08/03 07:05:21;;;;;;;7.65;1.88;;;18.90;85.70;;;;;;5043704;28;20033;-68
2023/08/03 07:07:47;;;;;;;7.10;1.80;;;18.80;85.60;;;;;;5045356;28;20029;-67
2023/08/03 07:10:13;;;;;;;6.50;1.90;;;18.80;85.70;;;;;;5041992;28;20335;-67
2023/08/03 07:12:38;;;;;;;8.88;1.77;;;18.80;85.70;;;;;;5027985;28;20036;-67
2023/08/03 07:15:05;;;;;;;7.13;1.63;;;18.90;85.70;;;;;;5046213;28;20535;-67
2023/08/03 07:17:32;;;;;;;5.45;1.50;;;18.90;85.60;;;;;;5050053;28;20355;-67
2023/08/03 07:19:57;;;;;;;9.38;2.17;;;18.90;85.50;;;;;;5042201;28;20173;-67
2023/08/03 07:22:24;;;;;;;8.20;2.00;;;18.90;85.40;;;;;;5048941;28;20021;-67
2023/08/03 07:24:51;;;;;;;7.53;1.80;;;18.90;85.50;;;;;;5045135;28;20025;-67
2023/08/03 07:27:17;;;;;;;4.85;1.60;;;18.90;85.50;;;;;;5043341;28;20025;-68
2023/08/03 07:29:43;;;;;;;6.28;1.50;;;18.90;85.50;;;;;;5058171;28;20020;-68
2023/08/03 07:32:11;;;;;;;5.63;1.70;;;18.90;85.50;;;;;;5055178;28;20116;-67
2023/08/03 07:34:36;;;;;;;6.55;1.67;;;18.90;85.50;;;;;;5050348;28;20041;-67
2023/08/03 07:37:03;;;;;;;5.95;1.38;;;18.90;85.60;;;;;;5040611;28;20458;-67
2023/08/03 07:39:28;;;;;;;5.13;1.20;;;18.90;85.60;;;;;;5044117;28;20433;-67
2023/08/03 07:41:54;;;;;;;7.38;1.80;;;18.90;85.50;;;;;;5043135;28;20021;-67
2023/08/03 07:44:20;;;;;;;5.22;1.40;;;18.90;85.50;;;;;;5046510;28;20029;-68
2023/08/03 07:46:46;;;;;;;5.25;1.27;;;19.00;85.50;;;;;;5044627;28;20079;-68
2023/08/03 07:49:12;;;;;;;4.80;1.52;;;19.10;85.40;;;;;;5042665;28;20032;-68
2023/08/03 07:51:38;;;;;;;6.28;1.65;;;19.10;85.40;;;;;;5049470;28;20118;-68
2023/08/03 07:54:05;;;;;;;5.40;1.90;;;19.10;85.40;;;;;;5047924;28;20456;-68
2023/08/03 07:56:31;;;;;;;5.38;1.58;;;19.10;85.40;;;;;;5048768;28;20033;-68
2023/08/03 07:58:58;;;;;;;5.32;1.40;;;19.10;85.40;;;;;;5047319;28;20024;-68
2023/08/03 08:01:24;;;;;;;3.53;1.30;;;19.10;85.40;;;;;;5044999;28;20033;-67
2023/08/03 08:03:50;;;;;;;5.10;1.70;;;19.10;85.30;;;;;;5060903;28;20028;-68
2023/08/03 08:06:17;;;;;;;5.20;1.60;;;19.20;85.30;;;;;;5043480;28;20031;-65
2023/08/03 08:08:44;;;;;;;6.85;1.33;;;19.20;85.30;;;;;;5049350;28;20122;-67
2023/08/03 08:11:11;;;;;;;5.85;1.40;;;19.20;85.30;;;;;;5022548;28;20159;-65
2023/08/03 08:13:37;;;;;;;7.20;1.92;;;19.20;85.20;;;;;;5042475;28;20029;-65
2023/08/03 08:16:05;;;;;;;4.85;1.40;;;19.20;85.10;;;;;;5049542;28;20041;-67
2023/08/03 08:18:32;;;;;;;6.93;1.65;;;19.20;85.10;;;;;;5045407;28;20041;-67
2023/08/03 08:21:00;;;;;;;6.25;1.85;;;19.20;85.20;;;;;;5057474;28;20034;-66
2023/08/03 08:23:25;;;;;;;7.07;1.50;;;19.20;85.20;;;;;;5044794;28;20032;-67
2023/08/03 08:25:51;;;;;;;5.22;1.63;;;19.20;85.10;;;;;;5027031;28;20017;-66
2023/08/03 08:28:18;;;;;;;6.15;1.65;;;19.30;85.10;;;;;;5046577;28;20108;-66
2023/08/03 08:30:44;;;;;;;5.03;1.30;;;19.40;85.00;;;;;;5044868;28;20052;-65
2023/08/03 08:33:10;;;;;;;6.78;1.88;;;19.30;84.90;;;;;;5042856;28;20036;-71
2023/08/03 08:35:36;;;;;;;6.90;1.65;;;19.30;85.00;;;;;;5047171;28;20032;-70
2023/08/03 08:38:05;;;;;;;4.78;1.60;;;19.30;85.20;;;;;;5043139;28;20030;-71
2023/08/03 08:40:38;;;;;;;6.53;1.67;;;19.30;85.20;;;;;;5048365;28;20120;-69
2023/08/03 08:43:04;;;;;;;6.57;1.85;;;19.30;85.30;;;;;;5044934;28;20082;-69
2023/08/03 08:45:30;;;;;;;7.50;1.90;;;19.30;85.40;;;;;;5049252;28;20111;-68
2023/08/03 08:47:57;;;;;;;6.50;1.92;;;19.30;85.40;;;;;;5047136;28;20041;-69
2023/08/03 08:50:22;;;;;;;4.75;1.80;;;19.30;85.40;;;;;;5045574;28;20415;-68
2023/08/03 08:52:50;;;;;;;5.75;1.83;;;19.30;85.40;;;;;;5041600;28;20128;-70
2023/08/03 08:55:20;;;;;;;4.88;1.92;;;19.40;85.50;;;;;;5042414;28;20052;-69
2023/08/03 08:57:46;;;;;;;6.05;1.83;;;19.40;85.50;;;;;;5050136;28;20037;-70
2023/08/03 09:00:14;;;;;;;3.97;1.42;;;19.40;85.60;;;;;;5042878;28;20037;-70
2023/08/03 09:02:40;;;;;;;7.60;2.13;;;19.40;85.60;;;;;;5045763;28;20025;-70
2023/08/03 09:05:17;;;;;;;5.00;1.67;;;19.50;85.70;;;;;;5051060;28;20512;-69
2023/08/03 09:07:43;;;;;;;5.95;1.90;;;19.60;85.60;;;;;;5057223;28;20029;-69
2023/08/03 09:10:09;;;;;;;5.45;2.00;;;19.80;85.40;;;;;;5048751;28;20024;-70
2023/08/03 09:12:37;;;;;;;5.95;2.00;;;20.10;85.10;;;;;;5049470;28;20064;-70
2023/08/03 09:15:03;;;;;;;5.50;2.17;;;20.20;84.90;;;;;;5051338;28;20041;-70
2023/08/03 09:17:29;;;;;;;6.40;1.67;;;20.20;84.70;;;;;;5050733;28;20033;-69
2023/08/03 09:19:55;;;;;;;3.95;1.70;;;20.20;84.80;;;;;;5045420;28;20107;-70
2023/08/03 09:22:22;;;;;;;7.22;2.15;;;20.10;84.90;;;;;;5047284;28;20069;-71
2023/08/03 09:25:08;;;;;;;4.85;2.13;;;20.10;85.00;;;;;;5048147;28;20036;-71
2023/08/03 09:27:37;;;;;;;5.43;2.10;;;20.30;85.00;;;;;;5045919;28;20342;-71
2023/08/03 09:30:04;;;;;;;5.50;2.15;;;20.40;84.70;;;;;;5039430;28;20025;-71
2023/08/03 09:32:39;;;;;;;6.38;2.45;;;20.60;84.50;;;;;;5030117;28;20037;-71
2023/08/03 09:35:20;;;;;;;6.07;2.70;;;21.00;84.20;;;;;;5053558;28;20116;-72
2023/08/03 09:37:47;;;;;;;7.05;2.70;;;21.30;83.40;;;;;;5050343;28;20409;-72
2023/08/03 09:40:13;;;;;;;6.95;2.83;;;21.40;83.00;;;;;;5044308;28;20029;-71
2023/08/03 09:42:40;;;;;;;9.93;2.85;;;21.60;82.80;;;;;;5044587;28;20037;-71
2023/08/03 09:45:08;;;;;;;7.93;2.90;;;21.80;82.40;;;;;;5036600;28;20399;-71
2023/08/03 09:47:38;;;;;;;8.65;3.05;;;21.90;82.20;;;;;;5036742;28;20029;-69
2023/08/03 09:50:04;;;;;;;6.85;2.70;;;21.80;82.30;;;;;;5036387;28;20406;-72
2023/08/03 09:52:32;;;;;;;6.95;2.67;;;21.90;82.20;;;;;;5050703;28;20029;-70
2023/08/03 09:55:07;;;;;;;8.15;2.92;;;22.00;82.10;;;;;;5038024;28;20053;-70
2023/08/03 09:58:01;;;;;;;5.15;2.30;;;22.10;82.00;;;;;;5054966;28;20033;-70
2023/08/03 10:00:28;;;;;;;7.63;2.80;;;22.10;81.80;;;;;;5050052;28;20033;-70
2023/08/03 10:03:13;;;;;;;6.68;2.85;;;22.00;81.80;;;;;;5042437;28;20138;-70
2023/08/03 10:06:16;;;;;;;7.93;2.75;;;21.90;81.90;;;;;;5045035;28;20087;-69
2023/08/03 10:08:55;;;;;;;7.88;3.00;;;21.80;82.20;;;;;;5040238;28;20065;-70
2023/08/03 10:11:22;;;;;;;7.07;3.17;;;21.60;82.20;;;;;;5045295;28;20041;-68
2023/08/03 10:13:51;;;;;;;8.05;2.60;;;21.50;82.50;;;;;;5060555;28;20029;-69
2023/08/03 10:16:18;;;;;;;6.72;2.58;;;21.40;82.60;;;;;;5049521;28;20045;-69
2023/08/03 10:18:45;;;;;;;9.02;2.75;;;21.30;82.90;;;;;;5047854;28;20331;-69
2023/08/03 10:21:11;;;;;;;9.10;2.60;;;21.10;83.00;;;;;;5044340;28;20037;-69
2023/08/03 10:23:39;;;;;;;5.97;2.38;;;21.10;83.30;;;;;;5025869;28;20082;-69
2023/08/03 10:26:08;;;;;;;4.80;2.10;;;21.20;83.50;;;;;;5045287;28;20424;-69
2023/08/03 10:28:40;;;;;;;5.25;2.42;;;21.60;83.00;;;;;;5042050;28;20099;-68
2023/08/03 10:31:17;;;;;;;4.95;2.10;;;22.10;82.20;;;;;;5039010;28;20029;-70
2023/08/03 10:33:52;;;;;;;8.07;2.15;;;22.50;81.30;;;;;;5042646;28;20079;-70
2023/08/03 10:36:48;;;;;;;6.32;2.33;;;22.80;80.50;;;;;;5024010;28;20128;-70
2023/08/03 10:39:16;;;;;;;7.43;2.28;;;22.80;80.10;;;;;;5039435;28;20037;-70
2023/08/03 10:41:49;;;;;;;6.47;2.60;;;22.70;80.30;;;;;;5028337;28;20025;-71
2023/08/03 10:44:15;;;;;;;5.15;2.08;;;22.50;80.50;;;;;;5030029;28;20025;-71
2023/08/03 10:46:49;;;;;;;4.63;2.00;;;22.20;80.70;;;;;;5039569;28;20084;-71
2023/08/03 10:49:21;;;;;;;6.25;1.95;;;22.00;81.00;;;;;;5038810;28;20033;-71
2023/08/03 10:52:06;;;;;;;6.25;1.70;;;21.70;81.20;;;;;;5047240;28;20029;-71
2023/08/03 10:54:32;;;;;;;8.25;2.45;;;21.50;81.40;;;;;;5043642;28;20038;-71
2023/08/03 10:57:12;;;;;;;3.72;1.50;;;21.30;81.70;;;;;;5046310;28;20025;-71
2023/08/03 10:59:38;;;;;;;5.22;2.25;;;21.10;81.80;;;;;;5039880;28;20045;-71
2023/08/03 11:02:15;;;;;;;5.13;1.85;;;21.00;82.10;;;;;;5047032;28;20025;-71
2023/08/03 11:04:42;;;;;;;4.28;1.80;;;20.80;82.10;;;;;;5029104;28;20448;-71
2023/08/03 11:07:14;;;;;;;4.97;1.83;;;20.70;82.10;;;;;;5061424;28;20030;-71
2023/08/03 11:09:40;;;;;;;7.75;2.20;;;20.70;82.30;;;;;;5050023;28;20035;-71
2023/08/03 11:12:07;;;;;;;8.25;2.75;;;20.80;82.30;;;;;;5044395;28;20029;-71
2023/08/03 11:14:37;;;;;;;7.75;3.42;;;20.80;82.20;;;;;;5050484;28;20090;-71
2023/08/03 11:17:03;;;;;;;10.85;3.03;;;20.90;82.30;;;;;;5015658;28;20042;-72
2023/08/03 11:19:32;;;;;;;9.35;2.80;;;20.90;82.20;;;;;;5041758;28;20029;-70
2023/08/03 11:22:01;;;;;;;8.60;2.15;;;21.00;82.00;;;;;;5026823;28;20032;-67
2023/08/03 11:24:31;;;;;;;7.80;2.45;;;21.00;82.00;;;;;;5020772;28;20034;-67
2023/08/03 11:27:01;;;;;;;5.75;2.10;;;21.00;82.00;;;;;;5021286;28;20017;-67
2023/08/03 11:29:27;;;;;;;5.43;2.22;;;21.00;82.10;;;;;;5023729;28;20112;-67
2023/08/03 11:31:53;;;;;;;7.45;2.55;;;20.90;82.20;;;;;;5024427;28;20121;-67
2023/08/03 11:34:20;;;;;;;6.03;2.47;;;20.80;82.40;;;;;;5026418;28;20035;-67
2023/08/03 11:36:51;;;;;;;8.65;3.22;;;20.80;82.70;;;;;;5027275;28;20091;-67
2023/08/03 11:39:18;;;;;;;5.03;2.42;;;20.70;82.80;;;;;;5021837;28;20319;-67
2023/08/03 11:41:44;;;;;;;6.10;2.53;;;20.70;83.00;;;;;;5016170;28;20120;-66
2023/08/03 11:44:10;;;;;;;6.50;2.60;;;20.60;83.10;;;;;;5018501;28;20118;-66
2023/08/03 11:46:36;;;;;;;6.13;2.70;;;20.60;83.30;;;;;;5031082;28;20100;-67
2023/08/03 11:49:03;;;;;;;5.63;2.38;;;20.70;83.30;;;;;;5030076;28;20412;-67
2023/08/03 11:51:39;;;;;;;7.57;3.03;;;20.70;83.30;;;;;;5031616;28;20057;-67
2023/08/03 11:54:06;;;;;;;6.30;2.38;;;20.70;83.30;;;;;;5035700;28;20067;-67
2023/08/03 11:56:37;;;;;;;8.10;2.55;;;20.70;83.40;;;;;;5024270;28;20029;-67
2023/08/03 11:59:05;;;;;;;7.20;2.70;;;20.60;83.50;;;;;;5007159;28;20022;-66
2023/08/03 12:01:31;;;;;;;6.45;2.55;;;20.60;83.70;;;;;;5030916;28;20076;-67
2023/08/03 12:04:07;;;;;;;7.72;2.00;;;20.60;83.80;;;;;;5030647;28;20021;-67
2023/08/03 12:06:50;;;;;;;5.93;1.90;;;20.50;83.80;;;;;;5020837;28;20043;-66
2023/08/03 12:09:22;;;;;;;4.85;2.08;;;20.60;83.90;;;;;;5029404;28;20022;-67
2023/08/03 12:11:48;;;;;;;5.68;2.13;;;20.70;83.90;;;;;;5032456;28;20117;-67
2023/08/03 12:14:18;;;;;;;6.00;2.30;;;20.80;83.40;;;;;;5034139;28;20350;-66
2023/08/03 12:16:46;;;;;;;6.53;2.03;;;21.00;83.20;;;;;;5049171;28;20071;-67
2023/08/03 12:19:11;;;;;;;6.90;2.45;;;21.10;83.00;;;;;;5031265;28;20041;-66
2023/08/03 12:21:37;;;;;;;6.43;1.95;;;21.20;82.90;;;;;;5050304;28;20145;-66
2023/08/03 12:24:07;;;;;;;4.60;1.88;;;21.20;82.80;;;;;;5049921;28;20430;-68
2023/08/03 12:26:33;;;;;;;5.82;1.88;;;21.10;82.60;;;;;;5042052;28;20057;-67
2023/08/03 12:29:01;;;;;;;3.90;1.42;;;21.10;82.60;;;;;;5047996;28;20107;-67
2023/08/03 12:31:30;;;;;;;5.78;1.40;;;21.20;82.50;;;;;;5049543;28;20029;-67
2023/08/03 12:33:57;;;;;;;6.25;1.80;;;21.30;82.30;;;;;;5046807;28;20099;-67
2023/08/03 12:36:23;;;;;;;4.78;1.42;;;21.40;82.00;;;;;;5046757;28;20068;-67
2023/08/03 12:39:00;;;;;;;5.13;1.55;;;21.40;81.70;;;;;;5046737;28;20064;-67
2023/08/03 12:41:26;;;;;;;3.67;1.17;;;21.30;81.70;;;;;;5046248;28;20167;-68
2023/08/03 12:43:52;;;;;;;2.13;1.10;;;21.30;81.70;;;;;;5039641;28;20025;-68
2023/08/03 12:46:18;;;;;;;3.67;1.10;;;21.20;81.70;;;;;;5036479;28;20044;-69
2023/08/03 12:48:45;;;;;;;3.00;1.08;;;21.30;81.70;;;;;;5043199;28;20025;-68
2023/08/03 12:51:11;;;;;;;2.50;1.00;;;21.30;81.50;;;;;;5053049;28;20031;-68